sensor_id;sensor_type;location;lat;lon;timestamp;temperature;humidity
25550;DHT22;13444;50.562;7.262;2023-04-15T00:00:02;6.10;99.90
25550;DHT22;13444;50.562;7.262;2023-04-15T00:02:27;6.00;99.90
25550;DHT22;13444;50.562;7.262;2023-04-15T00:04:53;5.90;99.90
25550;DHT22;13444;50.562;7.262;2023-04-15T00:07:19;5.80;99.90
25550;DHT22;13444;50.562;7.262;2023-04-15T00:09:44;5.70;99.90
25550;DHT22;13444;50.562;7.262;2023-04-15T00:12:11;5.70;99.90
25550;DHT22;13444;50.562;7.262;2023-04-15T00:14:37;5.80;99.90
25550;DHT22;13444;50.562;7.262;2023-04-15T00:17:03;5.70;99.90
25550;DHT22;13444;50.562;7.262;2023-04-15T00:19:30;5.60;99.90
25550;DHT22;13444;50.562;7.262;2023-04-15T00:21:55;5.50;99.90
25550;DHT22;13444;50.562;7.262;2023-04-15T00:24:22;5.50;99.90
25550;DHT22;13444;50.562;7.262;2023-04-15T00:26:47;5.40;99.90
25550;DHT22;13444;50.562;7.262;2023-04-15T00:29:13;5.40;99.90
25550;DHT22;13444;50.562;7.262;2023-04-15T00:31:39;5.30;99.90
25550;DHT22;13444;50.562;7.262;2023-04-15T00:34:05;5.30;99.90
25550;DHT22;13444;50.562;7.262;2023-04-15T00:36:30;5.30;99.90
25550;DHT22;13444;50.562;7.262;2023-04-15T00:38:58;5.30;99.90
25550;DHT22;13444;50.562;7.262;2023-04-15T00:41:23;5.20;99.90
25550;DHT22;13444;50.562;7.262;2023-04-15T00:43:49;5.20;99.90
25550;DHT22;13444;50.562;7.262;2023-04-15T00:46:16;5.20;99.90
25550;DHT22;13444;50.562;7.262;2023-04-15T00:48:43;5.10;99.90
25550;DHT22;13444;50.562;7.262;2023-04-15T00:51:09;5.10;99.90
25550;DHT22;13444;50.562;7.262;2023-04-15T00:53:35;5.10;99.90
25550;DHT22;13444;50.562;7.262;2023-04-15T00:56:00;5.00;99.90
25550;DHT22;13444;50.562;7.262;2023-04-15T00:58:26;5.00;99.90
25550;DHT22;13444;50.562;7.262;2023-04-15T01:00:53;5.00;99.90
25550;DHT22;13444;50.562;7.262;2023-04-15T01:03:19;4.90;99.90
25550;DHT22;13444;50.562;7.262;2023-04-15T01:05:45;4.90;99.90
25550;DHT22;13444;50.562;7.262;2023-04-15T01:08:11;4.80;99.90
25550;DHT22;13444;50.562;7.262;2023-04-15T01:10:37;4.70;99.90
25550;DHT22;13444;50.562;7.262;2023-04-15T01:13:02;4.70;99.90
25550;DHT22;13444;50.562;7.262;2023-04-15T01:15:28;4.80;99.90
25550;DHT22;13444;50.562;7.262;2023-04-15T01:17:54;4.90;99.90
25550;DHT22;13444;50.562;7.262;2023-04-15T01:20:20;4.90;99.90
25550;DHT22;13444;50.562;7.262;2023-04-15T01:22:47;4.90;99.90
25550;DHT22;13444;50.562;7.262;2023-04-15T01:25:17;4.90;99.90
25550;DHT22;13444;50.562;7.262;2023-04-15T01:27:43;4.90;99.90
25550;DHT22;13444;50.562;7.262;2023-04-15T01:30:09;4.80;99.90
25550;DHT22;13444;50.562;7.262;2023-04-15T01:32:35;4.70;99.90
25550;DHT22;13444;50.562;7.262;2023-04-15T01:35:01;4.60;99.90
25550;DHT22;13444;50.562;7.262;2023-04-15T01:37:27;4.50;99.90
25550;DHT22;13444;50.562;7.262;2023-04-15T01:39:53;4.50;99.90
25550;DHT22;13444;50.562;7.262;2023-04-15T01:42:20;4.40;99.90
25550;DHT22;13444;50.562;7.262;2023-04-15T01:44:46;4.40;99.90
25550;DHT22;13444;50.562;7.262;2023-04-15T01:47:12;4.40;99.90
25550;DHT22;13444;50.562;7.262;2023-04-15T01:49:37;4.40;99.90
25550;DHT22;13444;50.562;7.262;2023-04-15T01:52:03;4.30;99.90
25550;DHT22;13444;50.562;7.262;2023-04-15T01:54:28;4.30;99.90
25550;DHT22;13444;50.562;7.262;2023-04-15T01:56:54;4.30;99.90
25550;DHT22;13444;50.562;7.262;2023-04-15T01:59:21;4.30;99.90
25550;DHT22;13444;50.562;7.262;2023-04-15T02:01:47;4.30;99.90
25550;DHT22;13444;50.562;7.262;2023-04-15T02:04:12;4.30;99.90
25550;DHT22;13444;50.562;7.262;2023-04-15T02:06:42;4.30;99.90
25550;DHT22;13444;50.562;7.262;2023-04-15T02:09:08;4.20;99.90
25550;DHT22;13444;50.562;7.262;2023-04-15T02:11:34;4.20;99.90
25550;DHT22;13444;50.562;7.262;2023-04-15T02:14:00;4.20;99.90
25550;DHT22;13444;50.562;7.262;2023-04-15T02:16:25;4.20;99.90
25550;DHT22;13444;50.562;7.262;2023-04-15T02:18:51;4.10;99.90
25550;DHT22;13444;50.562;7.262;2023-04-15T02:21:16;4.00;99.90
25550;DHT22;13444;50.562;7.262;2023-04-15T02:23:43;3.90;99.90
25550;DHT22;13444;50.562;7.262;2023-04-15T02:26:09;3.90;99.90
25550;DHT22;13444;50.562;7.262;2023-04-15T02:28:34;3.90;99.90
25550;DHT22;13444;50.562;7.262;2023-04-15T02:31:04;3.90;99.90
25550;DHT22;13444;50.562;7.262;2023-04-15T02:33:30;4.00;99.90
25550;DHT22;13444;50.562;7.262;2023-04-15T02:35:56;4.00;99.90
25550;DHT22;13444;50.562;7.262;2023-04-15T02:38:23;4.00;99.90
25550;DHT22;13444;50.562;7.262;2023-04-15T02:40:49;4.00;99.90
25550;DHT22;13444;50.562;7.262;2023-04-15T02:43:15;3.90;99.90
25550;DHT22;13444;50.562;7.262;2023-04-15T02:45:42;3.80;99.90
25550;DHT22;13444;50.562;7.262;2023-04-15T02:48:08;3.70;99.90
25550;DHT22;13444;50.562;7.262;2023-04-15T02:50:33;3.70;99.90
25550;DHT22;13444;50.562;7.262;2023-04-15T02:52:59;3.70;99.90
25550;DHT22;13444;50.562;7.262;2023-04-15T02:55:26;3.70;99.90
25550;DHT22;13444;50.562;7.262;2023-04-15T02:57:51;3.70;99.90
25550;DHT22;13444;50.562;7.262;2023-04-15T03:00:17;3.60;99.90
25550;DHT22;13444;50.562;7.262;2023-04-15T03:02:44;3.60;99.90
25550;DHT22;13444;50.562;7.262;2023-04-15T03:05:12;3.60;99.90
25550;DHT22;13444;50.562;7.262;2023-04-15T03:07:38;3.60;99.90
25550;DHT22;13444;50.562;7.262;2023-04-15T03:10:06;3.50;99.90
25550;DHT22;13444;50.562;7.262;2023-04-15T03:12:31;3.50;99.90
25550;DHT22;13444;50.562;7.262;2023-04-15T03:14:57;3.50;99.90
25550;DHT22;13444;50.562;7.262;2023-04-15T03:17:22;3.40;99.90
25550;DHT22;13444;50.562;7.262;2023-04-15T03:19:48;3.40;99.90
25550;DHT22;13444;50.562;7.262;2023-04-15T03:22:13;3.40;99.90
25550;DHT22;13444;50.562;7.262;2023-04-15T03:24:39;3.30;99.90
25550;DHT22;13444;50.562;7.262;2023-04-15T03:27:05;3.40;99.90
25550;DHT22;13444;50.562;7.262;2023-04-15T03:29:32;3.40;99.90
25550;DHT22;13444;50.562;7.262;2023-04-15T03:31:58;3.30;99.90
25550;DHT22;13444;50.562;7.262;2023-04-15T03:34:23;3.30;99.90
25550;DHT22;13444;50.562;7.262;2023-04-15T03:36:49;3.20;99.90
25550;DHT22;13444;50.562;7.262;2023-04-15T03:39:15;3.20;99.90
25550;DHT22;13444;50.562;7.262;2023-04-15T03:41:40;3.20;99.90
25550;DHT22;13444;50.562;7.262;2023-04-15T03:44:06;3.20;99.90
25550;DHT22;13444;50.562;7.262;2023-04-15T03:46:31;3.10;99.90
25550;DHT22;13444;50.562;7.262;2023-04-15T03:48:57;3.10;99.90
25550;DHT22;13444;50.562;7.262;2023-04-15T03:51:23;3.00;99.90
25550;DHT22;13444;50.562;7.262;2023-04-15T03:53:48;3.10;99.90
25550;DHT22;13444;50.562;7.262;2023-04-15T03:56:14;3.10;99.90
25550;DHT22;13444;50.562;7.262;2023-04-15T03:58:40;3.00;99.90
25550;DHT22;13444;50.562;7.262;2023-04-15T04:01:05;3.00;99.90
25550;DHT22;13444;50.562;7.262;2023-04-15T04:03:31;3.00;99.90
25550;DHT22;13444;50.562;7.262;2023-04-15T04:05:57;3.00;99.90
25550;DHT22;13444;50.562;7.262;2023-04-15T04:08:23;3.00;99.90
25550;DHT22;13444;50.562;7.262;2023-04-15T04:10:48;3.00;99.90
25550;DHT22;13444;50.562;7.262;2023-04-15T04:13:14;3.00;99.90
25550;DHT22;13444;50.562;7.262;2023-04-15T04:15:39;2.90;99.90
25550;DHT22;13444;50.562;7.262;2023-04-15T04:18:05;2.90;99.90
25550;DHT22;13444;50.562;7.262;2023-04-15T04:20:31;2.90;99.90
25550;DHT22;13444;50.562;7.262;2023-04-15T04:22:57;2.90;99.90
25550;DHT22;13444;50.562;7.262;2023-04-15T04:25:22;3.00;99.90
25550;DHT22;13444;50.562;7.262;2023-04-15T04:27:49;3.10;99.90
25550;DHT22;13444;50.562;7.262;2023-04-15T04:30:14;3.10;99.90
25550;DHT22;13444;50.562;7.262;2023-04-15T04:32:40;3.10;99.90
25550;DHT22;13444;50.562;7.262;2023-04-15T04:35:06;3.10;99.90
25550;DHT22;13444;50.562;7.262;2023-04-15T04:37:31;3.00;99.90
25550;DHT22;13444;50.562;7.262;2023-04-15T04:39:57;2.90;99.90
25550;DHT22;13444;50.562;7.262;2023-04-15T04:42:22;2.80;99.90
25550;DHT22;13444;50.562;7.262;2023-04-15T04:44:48;2.80;99.90
25550;DHT22;13444;50.562;7.262;2023-04-15T04:47:13;2.70;99.90
25550;DHT22;13444;50.562;7.262;2023-04-15T04:49:39;2.70;99.90
25550;DHT22;13444;50.562;7.262;2023-04-15T04:52:05;2.70;99.90
25550;DHT22;13444;50.562;7.262;2023-04-15T04:54:31;2.70;99.90
25550;DHT22;13444;50.562;7.262;2023-04-15T04:56:57;2.60;99.90
25550;DHT22;13444;50.562;7.262;2023-04-15T04:59:23;2.70;99.90
25550;DHT22;13444;50.562;7.262;2023-04-15T05:01:49;2.70;99.90
25550;DHT22;13444;50.562;7.262;2023-04-15T05:04:14;2.80;99.90
25550;DHT22;13444;50.562;7.262;2023-04-15T05:06:40;2.90;99.90
25550;DHT22;13444;50.562;7.262;2023-04-15T05:09:06;3.00;99.90
25550;DHT22;13444;50.562;7.262;2023-04-15T05:11:32;3.10;99.90
25550;DHT22;13444;50.562;7.262;2023-04-15T05:13:57;3.10;99.90
25550;DHT22;13444;50.562;7.262;2023-04-15T05:16:25;3.10;99.90
25550;DHT22;13444;50.562;7.262;2023-04-15T05:18:51;3.10;99.90
25550;DHT22;13444;50.562;7.262;2023-04-15T05:21:17;3.10;99.90
25550;DHT22;13444;50.562;7.262;2023-04-15T05:23:42;3.10;99.90
25550;DHT22;13444;50.562;7.262;2023-04-15T05:26:08;3.20;99.90
25550;DHT22;13444;50.562;7.262;2023-04-15T05:28:33;3.20;99.90
25550;DHT22;13444;50.562;7.262;2023-04-15T05:30:59;3.20;99.90
25550;DHT22;13444;50.562;7.262;2023-04-15T05:33:25;3.20;99.90
25550;DHT22;13444;50.562;7.262;2023-04-15T05:35:50;3.20;99.90
25550;DHT22;13444;50.562;7.262;2023-04-15T05:38:16;3.20;99.90
25550;DHT22;13444;50.562;7.262;2023-04-15T05:40:41;3.20;99.90
25550;DHT22;13444;50.562;7.262;2023-04-15T05:43:07;3.30;99.90
25550;DHT22;13444;50.562;7.262;2023-04-15T05:45:32;3.30;99.90
25550;DHT22;13444;50.562;7.262;2023-04-15T05:47:58;3.50;99.90
25550;DHT22;13444;50.562;7.262;2023-04-15T05:50:23;3.50;99.90
25550;DHT22;13444;50.562;7.262;2023-04-15T05:52:49;3.60;99.90
25550;DHT22;13444;50.562;7.262;2023-04-15T05:55:15;3.80;99.90
25550;DHT22;13444;50.562;7.262;2023-04-15T05:57:40;3.90;99.90
25550;DHT22;13444;50.562;7.262;2023-04-15T06:00:06;4.00;99.90
25550;DHT22;13444;50.562;7.262;2023-04-15T06:02:32;4.10;99.90
25550;DHT22;13444;50.562;7.262;2023-04-15T06:04:57;4.20;99.90
25550;DHT22;13444;50.562;7.262;2023-04-15T06:07:23;4.40;99.90
25550;DHT22;13444;50.562;7.262;2023-04-15T06:09:49;4.50;99.90
25550;DHT22;13444;50.562;7.262;2023-04-15T06:12:15;4.70;99.90
25550;DHT22;13444;50.562;7.262;2023-04-15T06:14:41;4.80;99.90
25550;DHT22;13444;50.562;7.262;2023-04-15T06:17:07;5.00;99.90
25550;DHT22;13444;50.562;7.262;2023-04-15T06:19:33;5.10;99.90
25550;DHT22;13444;50.562;7.262;2023-04-15T06:21:59;5.30;99.90
25550;DHT22;13444;50.562;7.262;2023-04-15T06:24:25;5.40;99.90
25550;DHT22;13444;50.562;7.262;2023-04-15T06:26:51;5.50;99.90
25550;DHT22;13444;50.562;7.262;2023-04-15T06:29:16;5.70;99.90
25550;DHT22;13444;50.562;7.262;2023-04-15T06:31:42;5.80;99.90
25550;DHT22;13444;50.562;7.262;2023-04-15T06:34:07;5.90;99.90
25550;DHT22;13444;50.562;7.262;2023-04-15T06:36:33;6.00;99.90
25550;DHT22;13444;50.562;7.262;2023-04-15T06:38:58;6.10;99.90
25550;DHT22;13444;50.562;7.262;2023-04-15T06:41:24;6.20;99.90
25550;DHT22;13444;50.562;7.262;2023-04-15T06:43:50;6.30;99.90
25550;DHT22;13444;50.562;7.262;2023-04-15T06:46:15;6.50;99.90
25550;DHT22;13444;50.562;7.262;2023-04-15T06:48:41;6.70;99.90
25550;DHT22;13444;50.562;7.262;2023-04-15T06:51:06;6.90;99.90
25550;DHT22;13444;50.562;7.262;2023-04-15T06:53:32;7.10;99.90
25550;DHT22;13444;50.562;7.262;2023-04-15T06:55:58;7.20;99.90
25550;DHT22;13444;50.562;7.262;2023-04-15T06:58:23;7.40;99.90
25550;DHT22;13444;50.562;7.262;2023-04-15T07:00:49;7.60;99.90
25550;DHT22;13444;50.562;7.262;2023-04-15T07:03:14;7.70;99.90
25550;DHT22;13444;50.562;7.262;2023-04-15T07:05:40;7.80;99.90
25550;DHT22;13444;50.562;7.262;2023-04-15T07:08:05;7.90;99.90
25550;DHT22;13444;50.562;7.262;2023-04-15T07:10:32;8.00;99.90
25550;DHT22;13444;50.562;7.262;2023-04-15T07:12:58;8.10;99.90
25550;DHT22;13444;50.562;7.262;2023-04-15T07:15:23;8.20;99.90
25550;DHT22;13444;50.562;7.262;2023-04-15T07:17:49;8.30;99.90
25550;DHT22;13444;50.562;7.262;2023-04-15T07:20:15;8.40;99.90
25550;DHT22;13444;50.562;7.262;2023-04-15T07:22:40;8.60;99.90
25550;DHT22;13444;50.562;7.262;2023-04-15T07:25:06;8.60;99.90
25550;DHT22;13444;50.562;7.262;2023-04-15T07:27:32;8.80;99.90
25550;DHT22;13444;50.562;7.262;2023-04-15T07:29:58;8.90;99.90
25550;DHT22;13444;50.562;7.262;2023-04-15T07:32:23;9.10;99.90
25550;DHT22;13444;50.562;7.262;2023-04-15T07:34:49;9.30;99.90
25550;DHT22;13444;50.562;7.262;2023-04-15T07:37:14;9.50;99.90
25550;DHT22;13444;50.562;7.262;2023-04-15T07:39:40;9.70;99.90
25550;DHT22;13444;50.562;7.262;2023-04-15T07:42:06;9.90;99.90
25550;DHT22;13444;50.562;7.262;2023-04-15T07:44:31;10.20;99.90
25550;DHT22;13444;50.562;7.262;2023-04-15T07:46:57;10.40;99.90
25550;DHT22;13444;50.562;7.262;2023-04-15T07:49:22;10.70;99.90
25550;DHT22;13444;50.562;7.262;2023-04-15T07:51:48;10.80;99.90
25550;DHT22;13444;50.562;7.262;2023-04-15T07:54:14;10.80;99.90
25550;DHT22;13444;50.562;7.262;2023-04-15T07:56:40;10.90;99.90
25550;DHT22;13444;50.562;7.262;2023-04-15T07:59:06;11.00;99.90
25550;DHT22;13444;50.562;7.262;2023-04-15T08:01:32;11.00;99.90
25550;DHT22;13444;50.562;7.262;2023-04-15T08:04:00;11.10;99.90
25550;DHT22;13444;50.562;7.262;2023-04-15T08:06:26;11.40;99.90
25550;DHT22;13444;50.562;7.262;2023-04-15T08:08:52;11.40;99.90
25550;DHT22;13444;50.562;7.262;2023-04-15T08:11:19;11.50;99.90
25550;DHT22;13444;50.562;7.262;2023-04-15T08:13:45;11.50;99.90
25550;DHT22;13444;50.562;7.262;2023-04-15T08:16:20;11.80;99.90
25550;DHT22;13444;50.562;7.262;2023-04-15T08:18:47;12.10;99.90
25550;DHT22;13444;50.562;7.262;2023-04-15T08:21:13;12.40;99.90
25550;DHT22;13444;50.562;7.262;2023-04-15T08:23:39;12.60;99.90
25550;DHT22;13444;50.562;7.262;2023-04-15T08:26:05;12.70;99.90
25550;DHT22;13444;50.562;7.262;2023-04-15T08:28:30;12.90;99.90
25550;DHT22;13444;50.562;7.262;2023-04-15T08:30:56;12.90;99.90
25550;DHT22;13444;50.562;7.262;2023-04-15T08:33:22;13.10;99.90
25550;DHT22;13444;50.562;7.262;2023-04-15T08:35:48;13.20;99.90
25550;DHT22;13444;50.562;7.262;2023-04-15T08:38:14;13.50;99.90
25550;DHT22;13444;50.562;7.262;2023-04-15T08:40:44;13.70;99.90
25550;DHT22;13444;50.562;7.262;2023-04-15T08:43:12;14.00;99.90
25550;DHT22;13444;50.562;7.262;2023-04-15T08:45:40;14.20;99.90
25550;DHT22;13444;50.562;7.262;2023-04-15T08:48:06;14.40;99.90
25550;DHT22;13444;50.562;7.262;2023-04-15T08:50:34;14.50;99.90
25550;DHT22;13444;50.562;7.262;2023-04-15T08:53:00;14.50;99.90
25550;DHT22;13444;50.562;7.262;2023-04-15T08:55:31;14.50;99.90
25550;DHT22;13444;50.562;7.262;2023-04-15T08:58:01;14.50;99.90
25550;DHT22;13444;50.562;7.262;2023-04-15T09:00:27;14.60;99.90
25550;DHT22;13444;50.562;7.262;2023-04-15T09:02:54;14.70;99.90
25550;DHT22;13444;50.562;7.262;2023-04-15T09:05:21;14.80;99.90
25550;DHT22;13444;50.562;7.262;2023-04-15T09:07:47;14.80;99.90
25550;DHT22;13444;50.562;7.262;2023-04-15T09:10:14;14.70;99.90
25550;DHT22;13444;50.562;7.262;2023-04-15T09:12:40;14.60;99.90
25550;DHT22;13444;50.562;7.262;2023-04-15T09:15:07;14.50;99.90
25550;DHT22;13444;50.562;7.262;2023-04-15T09:17:44;14.60;99.90
25550;DHT22;13444;50.562;7.262;2023-04-15T09:20:12;14.60;99.90
25550;DHT22;13444;50.562;7.262;2023-04-15T09:22:39;14.60;99.90
25550;DHT22;13444;50.562;7.262;2023-04-15T09:25:26;14.80;99.90
25550;DHT22;13444;50.562;7.262;2023-04-15T09:27:57;15.00;99.90
25550;DHT22;13444;50.562;7.262;2023-04-15T09:30:24;15.10;99.90
25550;DHT22;13444;50.562;7.262;2023-04-15T09:33:00;15.20;99.90
25550;DHT22;13444;50.562;7.262;2023-04-15T09:35:32;15.30;99.90
25550;DHT22;13444;50.562;7.262;2023-04-15T09:38:16;15.40;99.90
25550;DHT22;13444;50.562;7.262;2023-04-15T09:40:41;15.60;99.90
25550;DHT22;13444;50.562;7.262;2023-04-15T09:43:09;15.70;99.90
25550;DHT22;13444;50.562;7.262;2023-04-15T09:45:37;15.70;99.90
25550;DHT22;13444;50.562;7.262;2023-04-15T09:50:42;15.90;99.90
25550;DHT22;13444;50.562;7.262;2023-04-15T09:53:09;16.00;99.90
25550;DHT22;13444;50.562;7.262;2023-04-15T09:55:36;16.40;99.90
25550;DHT22;13444;50.562;7.262;2023-04-15T09:58:08;16.80;99.90
25550;DHT22;13444;50.562;7.262;2023-04-15T10:00:34;17.30;99.90
25550;DHT22;13444;50.562;7.262;2023-04-15T10:03:01;17.60;99.90
25550;DHT22;13444;50.562;7.262;2023-04-15T10:05:28;18.00;99.90
25550;DHT22;13444;50.562;7.262;2023-04-15T10:07:55;18.40;99.90
25550;DHT22;13444;50.562;7.262;2023-04-15T10:10:21;18.70;99.90
25550;DHT22;13444;50.562;7.262;2023-04-15T10:12:48;18.60;99.90
25550;DHT22;13444;50.562;7.262;2023-04-15T10:15:15;18.40;99.90
25550;DHT22;13444;50.562;7.262;2023-04-15T10:17:44;18.20;99.90
25550;DHT22;13444;50.562;7.262;2023-04-15T10:20:10;18.00;99.90
25550;DHT22;13444;50.562;7.262;2023-04-15T10:22:37;18.10;99.90
25550;DHT22;13444;50.562;7.262;2023-04-15T10:25:03;18.30;99.90
25550;DHT22;13444;50.562;7.262;2023-04-15T10:27:30;18.60;99.90
25550;DHT22;13444;50.562;7.262;2023-04-15T10:29:56;18.80;99.90
25550;DHT22;13444;50.562;7.262;2023-04-15T10:32:23;19.00;99.90
25550;DHT22;13444;50.562;7.262;2023-04-15T10:34:56;19.20;99.90
25550;DHT22;13444;50.562;7.262;2023-04-15T10:37:33;19.40;99.90
25550;DHT22;13444;50.562;7.262;2023-04-15T10:39:59;19.50;99.90
25550;DHT22;13444;50.562;7.262;2023-04-15T10:42:33;19.40;99.90
25550;DHT22;13444;50.562;7.262;2023-04-15T10:44:59;19.30;99.90
25550;DHT22;13444;50.562;7.262;2023-04-15T10:47:25;19.20;99.90
25550;DHT22;13444;50.562;7.262;2023-04-15T10:49:51;19.20;99.90
25550;DHT22;13444;50.562;7.262;2023-04-15T10:52:22;19.30;99.90
25550;DHT22;13444;50.562;7.262;2023-04-15T10:54:47;19.20;99.90
25550;DHT22;13444;50.562;7.262;2023-04-15T10:57:15;19.20;99.90
25550;DHT22;13444;50.562;7.262;2023-04-15T11:00:01;19.30;99.90
25550;DHT22;13444;50.562;7.262;2023-04-15T11:02:42;19.50;99.90
25550;DHT22;13444;50.562;7.262;2023-04-15T11:05:09;19.50;99.90
25550;DHT22;13444;50.562;7.262;2023-04-15T11:12:39;19.60;99.90
25550;DHT22;13444;50.562;7.262;2023-04-15T11:15:40;19.30;99.90
25550;DHT22;13444;50.562;7.262;2023-04-15T11:18:25;18.90;99.90
25550;DHT22;13444;50.562;7.262;2023-04-15T11:20:54;18.80;99.90
25550;DHT22;13444;50.562;7.262;2023-04-15T11:23:42;18.60;99.90
25550;DHT22;13444;50.562;7.262;2023-04-15T11:26:11;18.30;99.90
25550;DHT22;13444;50.562;7.262;2023-04-15T11:28:38;17.80;99.90
25550;DHT22;13444;50.562;7.262;2023-04-15T11:31:13;17.60;99.90
25550;DHT22;13444;50.562;7.262;2023-04-15T11:33:52;17.60;99.90
25550;DHT22;13444;50.562;7.262;2023-04-15T11:36:18;17.70;99.90
25550;DHT22;13444;50.562;7.262;2023-04-15T11:38:45;17.60;99.90
25550;DHT22;13444;50.562;7.262;2023-04-15T11:41:11;17.20;99.90
25550;DHT22;13444;50.562;7.262;2023-04-15T11:43:37;17.20;99.90
25550;DHT22;13444;50.562;7.262;2023-04-15T11:46:03;17.40;99.90
25550;DHT22;13444;50.562;7.262;2023-04-15T11:48:31;17.40;99.90
25550;DHT22;13444;50.562;7.262;2023-04-15T11:51:07;17.40;99.90
25550;DHT22;13444;50.562;7.262;2023-04-15T11:53:47;17.30;99.90
25550;DHT22;13444;50.562;7.262;2023-04-15T11:56:20;17.10;99.90
25550;DHT22;13444;50.562;7.262;2023-04-15T11:58:47;17.00;99.90
25550;DHT22;13444;50.562;7.262;2023-04-15T12:01:14;16.90;99.90
25550;DHT22;13444;50.562;7.262;2023-04-15T12:03:44;16.80;99.90
25550;DHT22;13444;50.562;7.262;2023-04-15T12:06:16;16.70;99.90
25550;DHT22;13444;50.562;7.262;2023-04-15T12:08:59;16.40;99.90
25550;DHT22;13444;50.562;7.262;2023-04-15T12:14:01;16.20;99.90
25550;DHT22;13444;50.562;7.262;2023-04-15T12:16:27;16.20;99.90
25550;DHT22;13444;50.562;7.262;2023-04-15T12:18:55;16.10;99.90
25550;DHT22;13444;50.562;7.262;2023-04-15T12:21:21;16.00;99.90
25550;DHT22;13444;50.562;7.262;2023-04-15T12:23:52;15.80;99.90
25550;DHT22;13444;50.562;7.262;2023-04-15T12:26:27;15.60;99.90
25550;DHT22;13444;50.562;7.262;2023-04-15T12:28:54;15.60;99.90
25550;DHT22;13444;50.562;7.262;2023-04-15T12:31:21;15.50;99.90
25550;DHT22;13444;50.562;7.262;2023-04-15T12:33:48;15.50;99.90
25550;DHT22;13444;50.562;7.262;2023-04-15T12:36:14;15.50;99.90
25550;DHT22;13444;50.562;7.262;2023-04-15T12:38:39;15.40;99.90
25550;DHT22;13444;50.562;7.262;2023-04-15T12:41:05;15.20;99.90
25550;DHT22;13444;50.562;7.262;2023-04-15T12:43:31;14.90;99.90
25550;DHT22;13444;50.562;7.262;2023-04-15T12:45:56;14.90;99.90
25550;DHT22;13444;50.562;7.262;2023-04-15T12:48:22;14.80;99.90
25550;DHT22;13444;50.562;7.262;2023-04-15T12:50:47;14.70;99.90
25550;DHT22;13444;50.562;7.262;2023-04-15T12:53:13;14.60;99.90
25550;DHT22;13444;50.562;7.262;2023-04-15T12:55:39;14.60;99.90
25550;DHT22;13444;50.562;7.262;2023-04-15T12:58:04;14.50;99.90
25550;DHT22;13444;50.562;7.262;2023-04-15T13:00:33;14.40;99.90
25550;DHT22;13444;50.562;7.262;2023-04-15T13:02:58;14.30;99.90
25550;DHT22;13444;50.562;7.262;2023-04-15T13:05:24;14.30;99.90
25550;DHT22;13444;50.562;7.262;2023-04-15T13:07:49;14.30;99.90
25550;DHT22;13444;50.562;7.262;2023-04-15T13:10:15;14.30;99.90
25550;DHT22;13444;50.562;7.262;2023-04-15T13:12:41;14.00;99.90
25550;DHT22;13444;50.562;7.262;2023-04-15T13:15:07;13.90;99.90
25550;DHT22;13444;50.562;7.262;2023-04-15T13:17:35;13.80;99.90
25550;DHT22;13444;50.562;7.262;2023-04-15T13:20:00;13.70;99.90
25550;DHT22;13444;50.562;7.262;2023-04-15T13:22:26;13.80;99.90
25550;DHT22;13444;50.562;7.262;2023-04-15T13:24:51;13.90;99.90
25550;DHT22;13444;50.562;7.262;2023-04-15T13:27:17;13.80;99.90
25550;DHT22;13444;50.562;7.262;2023-04-15T13:29:42;13.80;99.90
25550;DHT22;13444;50.562;7.262;2023-04-15T13:32:08;13.80;99.90
25550;DHT22;13444;50.562;7.262;2023-04-15T13:34:33;13.80;99.90
25550;DHT22;13444;50.562;7.262;2023-04-15T13:37:05;14.10;99.90
25550;DHT22;13444;50.562;7.262;2023-04-15T13:39:31;14.20;99.90
25550;DHT22;13444;50.562;7.262;2023-04-15T13:41:56;14.10;99.90
25550;DHT22;13444;50.562;7.262;2023-04-15T13:44:22;14.10;99.90
25550;DHT22;13444;50.562;7.262;2023-04-15T13:46:47;14.00;99.90
25550;DHT22;13444;50.562;7.262;2023-04-15T13:49:13;14.00;99.90
25550;DHT22;13444;50.562;7.262;2023-04-15T13:51:38;13.90;99.90
25550;DHT22;13444;50.562;7.262;2023-04-15T13:54:04;13.90;99.90
25550;DHT22;13444;50.562;7.262;2023-04-15T13:56:30;14.00;99.90
25550;DHT22;13444;50.562;7.262;2023-04-15T13:58:56;14.00;99.90
25550;DHT22;13444;50.562;7.262;2023-04-15T14:01:24;14.00;99.90
25550;DHT22;13444;50.562;7.262;2023-04-15T14:03:49;13.80;99.90
25550;DHT22;13444;50.562;7.262;2023-04-15T14:06:15;13.80;99.90
25550;DHT22;13444;50.562;7.262;2023-04-15T14:08:41;13.90;99.90
25550;DHT22;13444;50.562;7.262;2023-04-15T14:11:06;13.90;99.90
25550;DHT22;13444;50.562;7.262;2023-04-15T14:13:32;13.90;99.90
25550;DHT22;13444;50.562;7.262;2023-04-15T14:15:57;13.70;99.90
25550;DHT22;13444;50.562;7.262;2023-04-15T14:18:23;13.70;99.90
25550;DHT22;13444;50.562;7.262;2023-04-15T14:20:49;13.70;99.90
25550;DHT22;13444;50.562;7.262;2023-04-15T14:23:14;13.60;99.90
25550;DHT22;13444;50.562;7.262;2023-04-15T14:25:40;13.60;99.90
25550;DHT22;13444;50.562;7.262;2023-04-15T14:28:05;13.50;99.90
25550;DHT22;13444;50.562;7.262;2023-04-15T14:30:31;13.30;99.90
25550;DHT22;13444;50.562;7.262;2023-04-15T14:32:56;13.40;99.90
25550;DHT22;13444;50.562;7.262;2023-04-15T14:35:22;13.40;99.90
25550;DHT22;13444;50.562;7.262;2023-04-15T14:37:51;13.40;99.90
25550;DHT22;13444;50.562;7.262;2023-04-15T14:40:17;13.30;99.90
25550;DHT22;13444;50.562;7.262;2023-04-15T14:42:43;13.40;99.90
25550;DHT22;13444;50.562;7.262;2023-04-15T14:45:09;13.40;99.90
25550;DHT22;13444;50.562;7.262;2023-04-15T14:47:34;13.30;99.90
25550;DHT22;13444;50.562;7.262;2023-04-15T14:50:00;13.30;99.90
25550;DHT22;13444;50.562;7.262;2023-04-15T14:52:26;13.20;99.90
25550;DHT22;13444;50.562;7.262;2023-04-15T14:54:52;13.20;99.90
25550;DHT22;13444;50.562;7.262;2023-04-15T14:57:17;13.00;99.90
25550;DHT22;13444;50.562;7.262;2023-04-15T14:59:43;12.90;99.90
25550;DHT22;13444;50.562;7.262;2023-04-15T15:02:08;12.80;99.90
25550;DHT22;13444;50.562;7.262;2023-04-15T15:04:34;12.80;99.90
25550;DHT22;13444;50.562;7.262;2023-04-15T15:07:00;12.70;99.90
25550;DHT22;13444;50.562;7.262;2023-04-15T15:09:26;12.60;99.90
25550;DHT22;13444;50.562;7.262;2023-04-15T15:11:51;12.50;99.90
25550;DHT22;13444;50.562;7.262;2023-04-15T15:14:17;12.50;99.90
25550;DHT22;13444;50.562;7.262;2023-04-15T15:16:42;12.50;99.90
25550;DHT22;13444;50.562;7.262;2023-04-15T15:19:08;12.50;99.90
25550;DHT22;13444;50.562;7.262;2023-04-15T15:21:34;12.40;99.90
25550;DHT22;13444;50.562;7.262;2023-04-15T15:23:59;12.30;99.90
25550;DHT22;13444;50.562;7.262;2023-04-15T15:26:25;12.30;99.90
25550;DHT22;13444;50.562;7.262;2023-04-15T15:28:52;12.20;99.90
25550;DHT22;13444;50.562;7.262;2023-04-15T15:31:17;12.10;99.90
25550;DHT22;13444;50.562;7.262;2023-04-15T15:33:43;12.10;99.90
25550;DHT22;13444;50.562;7.262;2023-04-15T15:36:09;12.10;99.90
25550;DHT22;13444;50.562;7.262;2023-04-15T15:38:35;12.10;99.90
25550;DHT22;13444;50.562;7.262;2023-04-15T15:41:01;12.00;99.90
25550;DHT22;13444;50.562;7.262;2023-04-15T15:43:26;12.00;99.90